Time;durP1;ratioP1;P1;durP2;ratioP2;P2;SDS_P1;SDS_P2;PMS_P1;PMS_P2;Temp;Humidity;BMP_temperature;BMP_pressure;BME280_temperature;BME280_humidity;BME280_pressure;Samples;Min_cycle;Max_cycle;Signal;HPM_P1;HPM_P2
2023/04/06 00:02:18;;;;;;;6.50;5.90;;;2.60;99.90;;;;;;5003786;28;20474;-66
2023/04/06 00:04:46;;;;;;;6.40;5.80;;;2.60;99.90;;;;;;5008553;28;20529;-66
2023/04/06 00:07:15;;;;;;;6.30;5.70;;;2.50;99.90;;;;;;4999498;28;20480;-66
2023/04/06 00:09:43;;;;;;;7.00;6.30;;;2.60;99.90;;;;;;4997742;28;20499;-65
2023/04/06 00:12:12;;;;;;;6.60;6.00;;;2.50;99.90;;;;;;5001266;28;20476;-67
2023/04/06 00:14:41;;;;;;;6.43;5.83;;;2.50;99.90;;;;;;4997694;28;20892;-67
2023/04/06 00:17:09;;;;;;;7.27;6.50;;;2.40;99.90;;;;;;5004942;28;22589;-67
2023/04/06 00:19:37;;;;;;;6.53;5.83;;;2.40;99.90;;;;;;5018011;28;21150;-66
2023/04/06 00:22:06;;;;;;;6.13;5.50;;;2.40;99.90;;;;;;4995985;28;20467;-67
2023/04/06 00:24:34;;;;;;;6.87;6.17;;;2.40;99.90;;;;;;5001432;28;20471;-67
2023/04/06 00:27:02;;;;;;;6.00;5.50;;;2.40;99.90;;;;;;5005078;28;20806;-67
2023/04/06 00:29:31;;;;;;;6.63;6.00;;;2.30;99.90;;;;;;5007784;28;21027;-67
2023/04/06 00:31:59;;;;;;;6.67;5.97;;;2.30;99.90;;;;;;5008178;28;20479;-67
2023/04/06 00:34:28;;;;;;;7.40;5.53;;;2.20;99.90;;;;;;5001911;28;20514;-66
2023/04/06 00:36:56;;;;;;;7.37;6.40;;;2.20;99.90;;;;;;4998217;28;20464;-66
2023/04/06 00:39:24;;;;;;;7.70;6.17;;;2.20;99.90;;;;;;5001971;28;20506;-66
2023/04/06 00:41:53;;;;;;;6.03;5.53;;;2.20;99.90;;;;;;5001498;28;20948;-67
2023/04/06 00:44:21;;;;;;;6.30;5.70;;;2.20;99.90;;;;;;4990786;28;20475;-67
2023/04/06 00:46:51;;;;;;;7.40;6.57;;;2.20;99.90;;;;;;5001677;28;20490;-67
2023/04/06 00:49:19;;;;;;;7.00;6.30;;;2.10;99.90;;;;;;5002790;28;20823;-67
2023/04/06 00:51:47;;;;;;;6.70;6.00;;;2.10;99.90;;;;;;5016205;28;20472;-67
2023/04/06 00:54:15;;;;;;;6.67;5.87;;;2.00;99.90;;;;;;5021162;28;20486;-67
2023/04/06 00:56:44;;;;;;;7.30;6.10;;;2.00;99.90;;;;;;5015144;28;20489;-66
2023/04/06 00:59:12;;;;;;;6.30;5.70;;;2.00;99.90;;;;;;5014603;28;20483;-67
2023/04/06 01:01:40;;;;;;;7.70;6.17;;;2.00;99.90;;;;;;5010384;28;20483;-67
2023/04/06 01:04:10;;;;;;;6.73;6.13;;;2.00;99.90;;;;;;4996121;28;20483;-66
2023/04/06 01:06:38;;;;;;;9.03;6.27;;;1.90;99.90;;;;;;5011871;28;20566;-66
2023/04/06 01:09:06;;;;;;;8.00;5.67;;;1.90;99.90;;;;;;4999278;28;20491;-66
2023/04/06 01:11:36;;;;;;;5.90;5.30;;;1.90;99.90;;;;;;5001051;28;21349;-67
2023/04/06 01:14:04;;;;;;;6.23;5.63;;;1.90;99.90;;;;;;4997613;28;20474;-66
2023/04/06 01:16:33;;;;;;;7.47;6.20;;;1.90;99.90;;;;;;4992748;28;20480;-67
2023/04/06 01:19:01;;;;;;;7.10;6.00;;;1.90;99.90;;;;;;5004228;28;20517;-67
2023/04/06 01:21:30;;;;;;;6.67;6.07;;;1.80;99.90;;;;;;4999886;28;20468;-67
2023/04/06 01:24:00;;;;;;;7.27;6.53;;;1.80;99.90;;;;;;5018818;28;20463;-67
2023/04/06 01:26:29;;;;;;;6.40;5.63;;;1.80;99.90;;;;;;5018616;28;20878;-67
2023/04/06 01:28:57;;;;;;;6.33;5.50;;;1.70;99.90;;;;;;5011362;28;20488;-67
2023/04/06 01:31:26;;;;;;;7.20;5.80;;;1.70;99.90;;;;;;5002715;28;20471;-66
2023/04/06 01:33:54;;;;;;;6.80;6.10;;;1.70;99.90;;;;;;5007925;28;21785;-69
2023/04/06 01:36:23;;;;;;;6.50;5.90;;;1.70;99.90;;;;;;5016163;28;20825;-66
2023/04/06 01:38:51;;;;;;;7.83;6.47;;;1.60;99.90;;;;;;5011203;28;21032;-67
2023/04/06 01:41:20;;;;;;;6.60;5.90;;;1.60;99.90;;;;;;5011595;28;20585;-67
2023/04/06 01:43:49;;;;;;;7.13;6.00;;;1.60;99.90;;;;;;5016147;28;20474;-66
2023/04/06 01:46:17;;;;;;;6.97;6.37;;;1.60;99.90;;;;;;5013435;28;20494;-67
2023/04/06 01:48:45;;;;;;;6.90;6.20;;;1.60;99.90;;;;;;5002449;28;20487;-67
2023/04/06 01:51:13;;;;;;;6.60;5.90;;;1.60;99.90;;;;;;5009318;28;20478;-67
2023/04/06 01:53:41;;;;;;;6.77;6.07;;;1.60;99.90;;;;;;5011428;28;20494;-66
2023/04/06 01:56:11;;;;;;;6.63;5.93;;;1.60;99.90;;;;;;5008870;28;20853;-67
2023/04/06 01:58:40;;;;;;;7.60;6.57;;;1.60;99.90;;;;;;5026090;28;20487;-67
2023/04/06 02:01:08;;;;;;;6.53;5.93;;;1.50;99.90;;;;;;5020478;28;20517;-67
2023/04/06 02:03:36;;;;;;;6.70;6.00;;;1.50;99.90;;;;;;5021735;28;20481;-67
2023/04/06 02:06:04;;;;;;;6.83;6.00;;;1.50;99.90;;;;;;5003220;28;20467;-66
2023/04/06 02:08:32;;;;;;;6.80;6.10;;;1.50;99.90;;;;;;4999107;28;20495;-67
2023/04/06 02:11:00;;;;;;;6.93;6.23;;;1.50;99.90;;;;;;4996017;28;20482;-67
2023/04/06 02:13:29;;;;;;;7.23;6.53;;;1.50;99.90;;;;;;5000282;28;20565;-67
2023/04/06 02:15:58;;;;;;;6.90;6.10;;;1.50;99.90;;;;;;5004495;28;20478;-67
2023/04/06 02:18:28;;;;;;;6.47;5.97;;;1.50;99.90;;;;;;4998999;28;20545;-67
2023/04/06 02:20:56;;;;;;;7.20;6.60;;;1.40;99.90;;;;;;5003478;28;20468;-67
2023/04/06 02:23:24;;;;;;;6.93;6.33;;;1.40;99.90;;;;;;5012248;28;20566;-67
2023/04/06 02:25:52;;;;;;;7.23;6.47;;;1.40;99.90;;;;;;4997336;28;21608;-66
2023/04/06 02:28:20;;;;;;;6.47;5.80;;;1.40;99.90;;;;;;5004831;28;20487;-66
2023/04/06 02:30:48;;;;;;;6.80;5.77;;;1.40;99.90;;;;;;5016994;28;20475;-67
2023/04/06 02:33:17;;;;;;;6.90;6.20;;;1.40;99.90;;;;;;5001133;28;20479;-69
2023/04/06 02:35:46;;;;;;;6.70;6.00;;;1.30;99.90;;;;;;4998051;28;20471;-66
2023/04/06 02:38:14;;;;;;;6.87;6.17;;;1.30;99.90;;;;;;5000059;28;20851;-66
2023/04/06 02:40:42;;;;;;;7.10;6.40;;;1.30;99.90;;;;;;4999251;28;20504;-66
2023/04/06 02:43:10;;;;;;;7.33;6.63;;;1.30;99.90;;;;;;5007632;28;20852;-66
2023/04/06 02:45:38;;;;;;;7.07;5.83;;;1.30;99.90;;;;;;5002726;28;20488;-66
2023/04/06 02:48:06;;;;;;;7.10;6.50;;;1.30;99.90;;;;;;4998750;28;20582;-70
2023/04/06 02:50:36;;;;;;;7.47;6.53;;;1.30;99.90;;;;;;5003442;28;20500;-67
2023/04/06 02:53:04;;;;;;;8.37;6.23;;;1.30;99.90;;;;;;4992182;28;20471;-67
2023/04/06 02:55:32;;;;;;;8.00;7.20;;;1.30;99.90;;;;;;5007696;28;21078;-66
2023/04/06 02:58:00;;;;;;;8.97;6.73;;;1.30;99.90;;;;;;5014271;28;20480;-66
2023/04/06 03:00:28;;;;;;;6.30;5.70;;;1.30;99.90;;;;;;5012602;28;20514;-66
2023/04/06 03:02:56;;;;;;;7.33;6.40;;;1.30;99.90;;;;;;5012310;28;20475;-66
2023/04/06 03:05:24;;;;;;;7.30;6.60;;;1.30;99.90;;;;;;5015145;28;20871;-67
2023/04/06 03:07:54;;;;;;;8.33;7.20;;;1.30;99.90;;;;;;5021473;28;20483;-67
2023/04/06 03:10:22;;;;;;;7.37;6.67;;;1.30;99.90;;;;;;5032205;28;20483;-67
2023/04/06 03:12:50;;;;;;;7.10;6.40;;;1.30;99.90;;;;;;5017703;28;20472;-67
2023/04/06 03:15:18;;;;;;;8.17;7.17;;;1.30;99.90;;;;;;5019607;28;21069;-67
2023/04/06 03:17:46;;;;;;;7.90;7.07;;;1.30;99.90;;;;;;5013156;28;20508;-66
2023/04/06 03:20:15;;;;;;;7.20;6.43;;;1.30;99.90;;;;;;5009822;28;20499;-67
2023/04/06 03:22:43;;;;;;;7.67;6.80;;;1.30;99.90;;;;;;5010840;28;20681;-67
2023/04/06 03:25:12;;;;;;;8.70;7.90;;;1.40;99.90;;;;;;5020918;28;20595;-68
2023/04/06 03:27:40;;;;;;;9.30;7.67;;;1.40;99.90;;;;;;5032702;28;20532;-66
2023/04/06 03:30:09;;;;;;;9.00;7.50;;;1.50;99.90;;;;;;5032754;28;20472;-67
2023/04/06 03:32:37;;;;;;;9.40;8.33;;;1.60;99.90;;;;;;5025937;28;20486;-67
2023/04/06 03:35:06;;;;;;;8.00;7.20;;;1.60;99.90;;;;;;4988839;28;20578;-68
2023/04/06 03:37:34;;;;;;;9.93;7.53;;;1.70;99.90;;;;;;4998286;28;20480;-66
2023/04/06 03:40:02;;;;;;;9.60;7.83;;;1.80;99.90;;;;;;5015019;28;20525;-67
2023/04/06 03:42:32;;;;;;;8.10;7.40;;;1.80;99.90;;;;;;5009272;28;20478;-67
2023/04/06 03:45:00;;;;;;;10.00;8.40;;;1.80;99.90;;;;;;5021817;28;20467;-66
2023/04/06 03:47:28;;;;;;;7.90;7.20;;;1.90;99.90;;;;;;5028844;28;20467;-66
2023/04/06 03:49:56;;;;;;;8.40;7.30;;;1.90;99.90;;;;;;5007661;28;20527;-65
2023/04/06 03:52:24;;;;;;;9.73;7.93;;;1.90;99.90;;;;;;5003225;28;21013;-67
2023/04/06 03:54:52;;;;;;;10.37;7.70;;;1.90;99.90;;;;;;5008305;28;20467;-67
2023/04/06 03:57:20;;;;;;;8.67;7.53;;;1.90;99.90;;;;;;5004234;28;20471;-67
2023/04/06 03:59:50;;;;;;;10.10;8.47;;;1.90;99.90;;;;;;4999676;28;20488;-67
2023/04/06 04:02:18;;;;;;;8.87;7.97;;;1.90;99.90;;;;;;5000993;28;20460;-67
2023/04/06 04:04:46;;;;;;;8.17;7.47;;;1.90;99.90;;;;;;5001093;28;20883;-67
2023/04/06 04:07:14;;;;;;;8.73;7.93;;;1.90;99.90;;;;;;5025754;28;20533;-67
2023/04/06 04:09:42;;;;;;;8.67;7.77;;;1.90;99.90;;;;;;5021986;28;20984;-67
2023/04/06 04:12:10;;;;;;;9.60;8.47;;;1.90;99.90;;;;;;5008888;28;20852;-67
2023/04/06 04:14:38;;;;;;;8.30;7.50;;;1.90;99.90;;;;;;5014661;28;21007;-67
2023/04/06 04:17:08;;;;;;;8.63;7.83;;;1.90;99.90;;;;;;4997485;28;20471;-67
2023/04/06 04:19:36;;;;;;;8.73;7.70;;;1.90;99.90;;;;;;5001469;28;21257;-67
2023/04/06 04:22:06;;;;;;;10.13;8.10;;;1.80;99.90;;;;;;4999368;28;21085;-67
2023/04/06 04:24:34;;;;;;;8.13;7.43;;;1.80;99.90;;;;;;5004025;28;20476;-67
2023/04/06 04:27:02;;;;;;;8.20;7.40;;;1.80;99.90;;;;;;5023242;28;20471;-65
2023/04/06 04:29:30;;;;;;;8.70;7.80;;;1.80;99.90;;;;;;5020588;28;20488;-65
2023/04/06 04:31:58;;;;;;;8.23;7.40;;;1.80;99.90;;;;;;5004245;28;20484;-65
2023/04/06 04:34:29;;;;;;;9.07;8.10;;;1.70;99.90;;;;;;4992725;28;20926;-67
2023/04/06 04:36:57;;;;;;;8.60;7.50;;;1.70;99.90;;;;;;5002922;28;20475;-67
2023/04/06 04:39:25;;;;;;;9.47;7.90;;;1.70;99.90;;;;;;4995187;28;20748;-67
2023/04/06 04:41:53;;;;;;;8.80;7.90;;;1.70;99.90;;;;;;5000510;28;20488;-67
2023/04/06 04:44:21;;;;;;;9.13;8.23;;;1.70;99.90;;;;;;4997197;28;20479;-64
2023/04/06 04:46:49;;;;;;;11.50;9.27;;;1.70;99.90;;;;;;5000618;28;20987;-65
2023/04/06 04:49:17;;;;;;;9.93;8.60;;;1.70;99.90;;;;;;5000872;28;20502;-65
2023/04/06 04:51:47;;;;;;;8.60;7.70;;;1.70;99.90;;;;;;4996544;28;20487;-66
2023/04/06 04:54:15;;;;;;;8.90;8.00;;;1.70;99.90;;;;;;4995749;28;20474;-66
2023/04/06 04:56:43;;;;;;;10.10;8.50;;;1.70;99.90;;;;;;5008092;28;20471;-65
2023/04/06 04:59:11;;;;;;;8.80;7.90;;;1.70;99.90;;;;;;5007519;28;20487;-65
2023/04/06 05:01:39;;;;;;;10.87;8.53;;;1.70;99.90;;;;;;5014698;28;20504;-65
2023/04/06 05:04:22;;;;;;;8.80;7.90;;;1.70;99.90;;;;;;5012004;28;20567;-66
2023/04/06 05:06:51;;;;;;;8.93;7.87;;;1.60;99.90;;;;;;5007233;28;20463;-65
2023/04/06 05:09:19;;;;;;;8.47;7.67;;;1.60;99.90;;;;;;5012319;28;21069;-66
2023/04/06 05:11:47;;;;;;;7.67;6.90;;;1.60;99.90;;;;;;5009103;28;20467;-66
2023/04/06 05:14:15;;;;;;;8.87;7.93;;;1.70;99.90;;;;;;5003954;28;20502;-66
2023/04/06 05:16:43;;;;;;;9.20;8.20;;;1.70;99.90;;;;;;5016696;28;20530;-66
2023/04/06 05:19:11;;;;;;;8.60;7.80;;;1.70;99.90;;;;;;5008267;28;21046;-66
2023/04/06 05:21:39;;;;;;;9.53;7.60;;;1.70;99.90;;;;;;5013604;28;20566;-66
2023/04/06 05:24:09;;;;;;;10.10;7.83;;;1.70;99.90;;;;;;4997274;28;20467;-67
2023/04/06 05:26:37;;;;;;;8.40;7.40;;;1.70;99.90;;;;;;5004140;28;22173;-67
2023/04/06 05:29:05;;;;;;;9.00;8.10;;;1.70;99.90;;;;;;5035866;28;21014;-66
2023/04/06 05:31:34;;;;;;;9.40;8.33;;;1.80;99.90;;;;;;5020167;28;20503;-67
2023/04/06 05:34:02;;;;;;;9.00;8.10;;;1.80;99.90;;;;;;5021088;28;20475;-67
2023/04/06 05:36:31;;;;;;;10.00;9.00;;;1.90;99.90;;;;;;5009488;28;20476;-65
2023/04/06 05:39:00;;;;;;;8.87;8.07;;;1.90;99.90;;;;;;5011639;28;20495;-65
2023/04/06 05:41:29;;;;;;;9.03;7.87;;;1.90;99.90;;;;;;5005827;28;21038;-66
2023/04/06 05:43:57;;;;;;;10.20;8.37;;;1.90;99.90;;;;;;5004421;28;20467;-66
2023/04/06 05:46:25;;;;;;;9.73;8.23;;;1.90;99.90;;;;;;4995869;28;20463;-66
2023/04/06 05:48:53;;;;;;;9.20;8.33;;;1.90;99.90;;;;;;5013193;28;20491;-66
2023/04/06 05:51:21;;;;;;;8.87;8.03;;;1.90;99.90;;;;;;4995531;28;20486;-66
2023/04/06 05:53:49;;;;;;;9.37;8.47;;;1.90;99.90;;;;;;5002123;28;20475;-66
2023/04/06 05:56:18;;;;;;;9.33;8.30;;;1.90;99.90;;;;;;5005003;28;20924;-66
2023/04/06 05:58:47;;;;;;;9.30;8.40;;;1.90;99.90;;;;;;5015789;28;20499;-66
2023/04/06 06:01:16;;;;;;;10.37;9.17;;;1.90;99.90;;;;;;5005021;28;20539;-66
2023/04/06 06:03:44;;;;;;;9.73;8.67;;;2.00;99.90;;;;;;5001056;28;20944;-66
2023/04/06 06:06:12;;;;;;;12.00;9.10;;;2.00;99.90;;;;;;4990534;28;21501;-66
2023/04/06 06:08:40;;;;;;;9.20;8.27;;;2.00;99.90;;;;;;4995935;28;20516;-69
2023/04/06 06:11:08;;;;;;;13.60;9.93;;;2.10;99.90;;;;;;4988083;28;21128;-66
2023/04/06 06:13:36;;;;;;;10.20;9.20;;;2.10;99.90;;;;;;4996556;28;20471;-66
2023/04/06 06:16:06;;;;;;;11.53;10.20;;;2.20;99.90;;;;;;4997265;28;20487;-68
2023/04/06 06:18:36;;;;;;;11.47;10.27;;;2.30;99.90;;;;;;5011823;28;20494;-67
2023/04/06 06:21:04;;;;;;;10.63;9.40;;;2.30;99.90;;;;;;4995192;28;21718;-66
2023/04/06 06:23:33;;;;;;;14.60;10.80;;;2.40;99.90;;;;;;5001506;28;20475;-66
2023/04/06 06:26:01;;;;;;;10.63;9.50;;;2.40;99.90;;;;;;5000909;28;21570;-67
2023/04/06 06:28:29;;;;;;;11.50;10.40;;;2.50;99.90;;;;;;5011858;28;21102;-67
2023/04/06 06:30:58;;;;;;;12.50;11.17;;;2.50;99.90;;;;;;4992863;28;20995;-67
2023/04/06 06:33:27;;;;;;;11.93;10.73;;;2.60;99.90;;;;;;4998125;28;22928;-66
2023/04/06 06:35:55;;;;;;;12.17;10.90;;;2.60;99.90;;;;;;4993659;28;20495;-67
2023/04/06 06:38:24;;;;;;;12.23;11.00;;;2.70;99.90;;;;;;4994189;28;20491;-66
2023/04/06 06:40:52;;;;;;;13.03;11.70;;;2.80;99.90;;;;;;4993142;28;20467;-67
2023/04/06 06:43:20;;;;;;;13.30;11.90;;;2.90;99.90;;;;;;5009167;28;20486;-67
2023/04/06 06:45:48;;;;;;;12.77;11.47;;;2.90;99.90;;;;;;5004904;28;20474;-68
2023/04/06 06:48:16;;;;;;;12.90;11.00;;;3.00;99.90;;;;;;4995527;28;20845;-71
2023/04/06 06:50:48;;;;;;;12.93;11.27;;;3.00;99.90;;;;;;4987565;28;21678;-67
2023/04/06 06:53:16;;;;;;;13.03;10.90;;;3.10;99.90;;;;;;4986149;28;20471;-66
2023/04/06 06:55:45;;;;;;;12.40;10.77;;;3.20;99.90;;;;;;5009501;28;20779;-67
2023/04/06 06:58:13;;;;;;;12.60;10.57;;;3.30;99.90;;;;;;5019517;28;21091;-67
2023/04/06 07:00:41;;;;;;;12.10;10.90;;;3.40;99.90;;;;;;5018362;28;20506;-67
2023/04/06 07:03:09;;;;;;;11.47;10.20;;;3.40;99.90;;;;;;4998582;28;20609;-67
2023/04/06 07:05:37;;;;;;;11.70;10.37;;;3.50;99.90;;;;;;4990051;28;20476;-67
2023/04/06 07:08:09;;;;;;;11.30;10.30;;;3.60;99.90;;;;;;4988989;28;21270;-67
2023/04/06 07:10:37;;;;;;;11.90;10.00;;;3.70;99.90;;;;;;4991177;28;21021;-67
2023/04/06 07:13:06;;;;;;;11.00;9.97;;;3.80;99.90;;;;;;4994403;28;20467;-67
2023/04/06 07:15:34;;;;;;;10.30;9.30;;;3.90;99.90;;;;;;5010702;28;20471;-67
2023/04/06 07:18:02;;;;;;;11.30;10.20;;;4.00;99.90;;;;;;4997865;28;20498;-66
2023/04/06 07:20:30;;;;;;;13.03;9.43;;;4.10;99.90;;;;;;5019590;28;20629;-66
2023/04/06 07:22:58;;;;;;;12.90;9.57;;;4.20;99.90;;;;;;5009748;28;20695;-67
2023/04/06 07:25:27;;;;;;;10.17;9.20;;;4.20;99.90;;;;;;5001539;28;20486;-67
2023/04/06 07:27:55;;;;;;;11.50;10.33;;;4.30;99.90;;;;;;5011685;28;21077;-66
2023/04/06 07:30:26;;;;;;;10.63;9.57;;;4.40;99.90;;;;;;5021288;28;21049;-68
2023/04/06 07:32:55;;;;;;;10.57;9.50;;;4.50;99.90;;;;;;5030664;28;20475;-68
2023/04/06 07:35:24;;;;;;;10.80;9.30;;;4.60;99.90;;;;;;5015952;28;20604;-66
2023/04/06 07:37:52;;;;;;;10.03;9.13;;;4.60;99.90;;;;;;4999615;28;20505;-67
2023/04/06 07:40:21;;;;;;;9.80;8.80;;;4.70;99.90;;;;;;5008757;28;21460;-67
2023/04/06 07:42:51;;;;;;;10.30;9.30;;;4.80;99.90;;;;;;5014311;28;21020;-67
2023/04/06 07:45:19;;;;;;;9.80;8.33;;;4.80;99.90;;;;;;5001127;28;21875;-67
2023/04/06 07:47:47;;;;;;;9.63;8.73;;;4.90;99.90;;;;;;5025080;28;20478;-66
2023/04/06 07:50:16;;;;;;;11.60;8.20;;;5.00;99.90;;;;;;5007252;28;20483;-67
2023/04/06 07:52:44;;;;;;;8.53;7.80;;;5.10;99.90;;;;;;5005823;28;20472;-67
2023/04/06 07:55:12;;;;;;;10.40;8.57;;;5.30;99.90;;;;;;5004475;28;20475;-67
2023/04/06 07:57:40;;;;;;;8.43;7.63;;;5.30;99.90;;;;;;5005714;28;20494;-67
2023/04/06 08:00:11;;;;;;;8.37;7.57;;;5.50;99.90;;;;;;5022646;28;20491;-66
2023/04/06 08:02:39;;;;;;;8.30;7.37;;;5.60;99.90;;;;;;5011825;28;20506;-67
2023/04/06 08:05:08;;;;;;;7.70;6.40;;;5.80;99.90;;;;;;5000513;28;20506;-67
2023/04/06 08:07:36;;;;;;;14.13;7.30;;;5.90;99.90;;;;;;5001552;28;20478;-68
2023/04/06 08:10:05;;;;;;;7.73;7.00;;;6.00;99.90;;;;;;5004130;28;20499;-68
2023/04/06 08:12:33;;;;;;;7.07;6.30;;;6.10;99.90;;;;;;5009553;28;20561;-68
2023/04/06 08:15:02;;;;;;;7.40;6.53;;;6.20;99.90;;;;;;5019380;28;20478;-68
2023/04/06 08:17:33;;;;;;;7.83;7.03;;;6.20;99.90;;;;;;5015448;28;20558;-67
2023/04/06 08:20:03;;;;;;;10.60;7.00;;;6.30;99.90;;;;;;5008308;28;21098;-69
2023/04/06 08:22:31;;;;;;;6.60;6.00;;;6.40;99.90;;;;;;5012451;28;20480;-68
2023/04/06 08:24:59;;;;;;;8.00;5.93;;;6.50;99.90;;;;;;5019497;28;20474;-68
2023/04/06 08:27:27;;;;;;;7.57;6.20;;;6.60;99.90;;;;;;4998098;28;20483;-66
2023/04/06 08:29:55;;;;;;;6.63;5.90;;;6.70;99.90;;;;;;4998155;28;20987;-69
2023/04/06 08:32:23;;;;;;;6.83;6.23;;;6.80;99.90;;;;;;5007523;28;20477;-65
2023/04/06 08:34:55;;;;;;;6.80;6.10;;;6.90;99.90;;;;;;5019482;28;20471;-65
2023/04/06 08:37:24;;;;;;;6.97;6.37;;;7.00;99.90;;;;;;5006280;28;20526;-68
2023/04/06 08:39:52;;;;;;;10.57;6.70;;;7.10;99.90;;;;;;5002194;28;20498;-66
2023/04/06 08:42:21;;;;;;;6.47;5.87;;;7.20;99.90;;;;;;4999911;28;21026;-66
2023/04/06 08:44:50;;;;;;;6.77;6.07;;;7.30;99.90;;;;;;5003585;28;20479;-66
2023/04/06 08:47:19;;;;;;;7.13;6.33;;;7.40;99.90;;;;;;5003546;28;20558;-68
2023/04/06 08:49:52;;;;;;;6.43;5.83;;;7.40;99.90;;;;;;4999928;28;20498;-66
2023/04/06 08:52:21;;;;;;;7.83;6.70;;;7.50;99.90;;;;;;5007996;28;20477;-66
2023/04/06 08:54:50;;;;;;;7.70;6.90;;;7.50;99.90;;;;;;5017572;28;20553;-66
2023/04/06 08:57:19;;;;;;;9.47;6.30;;;7.60;98.50;;;;;;5026656;28;20522;-66
2023/04/06 08:59:48;;;;;;;10.33;6.37;;;7.60;99.90;;;;;;5025034;28;20488;-66
2023/04/06 09:02:19;;;;;;;7.03;6.33;;;7.70;99.90;;;;;;5000563;28;20467;-67
2023/04/06 09:04:50;;;;;;;8.13;6.77;;;7.80;99.90;;;;;;5026521;28;20479;-66
2023/04/06 09:07:18;;;;;;;6.67;6.07;;;7.90;97.70;;;;;;5026222;28;20474;-66
2023/04/06 09:09:48;;;;;;;6.40;5.70;;;8.00;97.80;;;;;;5008577;28;20494;-67
2023/04/06 09:12:27;;;;;;;6.23;5.63;;;8.10;97.70;;;;;;5008396;28;20463;-66
2023/04/06 09:14:56;;;;;;;7.57;6.30;;;8.20;95.90;;;;;;5000580;28;20501;-67
2023/04/06 09:17:25;;;;;;;6.57;5.97;;;8.30;93.40;;;;;;5007661;28;20499;-66
2023/04/06 09:19:54;;;;;;;6.03;5.43;;;8.40;84.30;;;;;;5007441;28;20625;-66
2023/04/06 09:22:22;;;;;;;5.43;4.80;;;8.40;85.70;;;;;;5011543;28;20479;-67
2023/04/06 09:24:53;;;;;;;6.30;5.73;;;8.50;86.70;;;;;;5008824;28;20478;-66
2023/04/06 09:27:32;;;;;;;7.93;4.83;;;8.60;73.00;;;;;;5026114;28;20462;-68
2023/04/06 09:30:08;;;;;;;8.00;5.23;;;8.70;86.20;;;;;;5021808;28;20479;-66
2023/04/06 09:32:49;;;;;;;5.60;5.10;;;8.70;91.30;;;;;;5003303;28;20475;-66
2023/04/06 09:35:19;;;;;;;5.43;4.93;;;8.80;78.10;;;;;;5031538;28;20533;-67
2023/04/06 09:37:49;;;;;;;7.17;5.53;;;8.90;80.00;;;;;;5037122;28;20467;-68
2023/04/06 09:40:20;;;;;;;5.90;5.33;;;9.00;85.90;;;;;;5007462;28;20534;-68
2023/04/06 09:42:51;;;;;;;6.07;5.57;;;9.00;93.20;;;;;;5011219;28;20491;-66
2023/04/06 09:45:20;;;;;;;5.63;5.13;;;9.10;83.20;;;;;;5000056;28;20474;-66
2023/04/06 09:47:49;;;;;;;6.90;5.50;;;9.20;81.90;;;;;;4995501;28;20479;-66
2023/04/06 09:50:19;;;;;;;6.80;5.80;;;9.20;90.50;;;;;;5011656;28;20855;-67
2023/04/06 09:52:50;;;;;;;6.30;5.40;;;9.30;84.10;;;;;;5002096;28;20481;-67
2023/04/06 09:55:26;;;;;;;6.23;5.70;;;9.30;90.10;;;;;;5002503;28;20494;-66
2023/04/06 09:58:00;;;;;;;6.93;6.33;;;9.40;84.10;;;;;;5005290;28;20499;-66
2023/04/06 10:00:31;;;;;;;5.93;5.43;;;9.40;81.20;;;;;;5019339;28;20495;-66
2023/04/06 10:03:05;;;;;;;6.57;5.83;;;9.50;90.70;;;;;;4999813;28;20497;-67
2023/04/06 10:05:43;;;;;;;7.93;5.67;;;9.50;76.20;;;;;;5003996;28;20483;-66
2023/04/06 10:08:12;;;;;;;7.83;5.80;;;9.50;73.30;;;;;;5001271;28;20491;-66
2023/04/06 10:10:42;;;;;;;5.70;5.13;;;9.50;77.40;;;;;;4998577;28;20495;-67
2023/04/06 10:13:12;;;;;;;5.30;4.80;;;9.60;94.90;;;;;;5000997;28;20583;-67
2023/04/06 10:15:40;;;;;;;7.40;5.20;;;9.80;67.30;;;;;;4997005;28;20471;-68
2023/04/06 10:18:09;;;;;;;5.40;4.60;;;9.80;66.10;;;;;;5001372;28;20479;-68
2023/04/06 10:20:42;;;;;;;5.20;4.80;;;9.80;70.90;;;;;;5035916;28;20488;-67
2023/04/06 10:23:16;;;;;;;5.20;4.70;;;9.90;70.40;;;;;;5027095;28;20699;-68
2023/04/06 10:25:55;;;;;;;7.47;5.50;;;10.00;65.90;;;;;;5012622;28;20475;-68
2023/04/06 10:28:23;;;;;;;6.53;4.90;;;10.10;58.60;;;;;;5009456;28;20494;-68
2023/04/06 10:30:58;;;;;;;6.03;4.80;;;10.10;55.60;;;;;;5021765;28;21089;-68
2023/04/06 10:33:26;;;;;;;5.27;4.80;;;10.20;58.40;;;;;;4998083;28;20471;-68
2023/04/06 10:35:55;;;;;;;5.33;4.93;;;10.30;55.80;;;;;;5002417;28;20471;-68
2023/04/06 10:38:34;;;;;;;5.40;4.80;;;10.40;57.60;;;;;;4995942;28;20958;-67
2023/04/06 10:41:08;;;;;;;6.20;5.70;;;10.50;57.00;;;;;;4999107;28;20479;-69
2023/04/06 10:43:37;;;;;;;5.47;4.97;;;10.60;56.40;;;;;;5011611;28;20494;-67
2023/04/06 10:46:07;;;;;;;5.70;5.20;;;10.60;55.10;;;;;;5002344;28;20476;-67
2023/04/06 10:48:40;;;;;;;6.50;5.90;;;10.70;54.80;;;;;;5024066;28;20963;-67
2023/04/06 10:51:12;;;;;;;8.03;6.10;;;10.80;56.00;;;;;;5017488;28;20482;-68
2023/04/06 10:53:43;;;;;;;7.80;6.63;;;10.90;55.70;;;;;;5007711;28;20478;-68
2023/04/06 10:56:13;;;;;;;6.23;5.73;;;11.00;54.90;;;;;;5009066;28;20482;-68
2023/04/06 10:58:46;;;;;;;6.80;5.70;;;11.10;51.40;;;;;;5016339;28;20479;-68
2023/04/06 11:01:17;;;;;;;6.70;6.10;;;11.20;49.10;;;;;;5005341;28;20528;-68
2023/04/06 11:03:45;;;;;;;6.63;6.03;;;11.20;48.50;;;;;;5003866;28;21062;-68
2023/04/06 11:06:19;;;;;;;6.83;6.23;;;11.30;52.80;;;;;;5011217;28;20483;-68
2023/04/06 11:08:47;;;;;;;7.70;6.20;;;11.40;56.80;;;;;;5006313;28;20594;-68
2023/04/06 11:11:19;;;;;;;7.53;6.83;;;11.50;48.70;;;;;;5002866;28;20482;-68
2023/04/06 11:13:49;;;;;;;7.10;6.50;;;11.60;48.80;;;;;;5001550;28;20468;-69
2023/04/06 11:16:18;;;;;;;7.10;6.40;;;11.70;48.50;;;;;;5016524;28;21011;-68
2023/04/06 11:18:54;;;;;;;7.17;6.53;;;11.80;50.30;;;;;;5015846;28;20524;-68
2023/04/06 11:21:34;;;;;;;7.87;7.27;;;11.90;54.50;;;;;;5012705;28;21043;-68
2023/04/06 11:24:06;;;;;;;7.70;6.73;;;12.00;48.90;;;;;;5026633;28;20499;-68
2023/04/06 11:26:40;;;;;;;8.03;6.90;;;12.10;46.00;;;;;;5005273;28;20616;-68
2023/04/06 11:29:08;;;;;;;7.50;6.80;;;12.20;50.10;;;;;;5026193;28;20490;-68
2023/04/06 11:31:45;;;;;;;7.90;7.10;;;12.30;50.90;;;;;;5026211;28;20467;-68
2023/04/06 11:34:16;;;;;;;8.00;7.30;;;12.40;46.70;;;;;;5024059;28;21102;-67
2023/04/06 11:36:46;;;;;;;10.40;8.10;;;12.50;45.90;;;;;;5010200;28;20475;-67
2023/04/06 11:39:18;;;;;;;8.60;7.90;;;12.50;44.70;;;;;;5030105;28;20490;-68
2023/04/06 11:41:50;;;;;;;7.90;7.13;;;12.50;44.30;;;;;;5024653;28;20471;-68
2023/04/06 11:44:32;;;;;;;8.50;7.80;;;12.60;47.40;;;;;;5005182;28;20636;-67
2023/04/06 11:47:01;;;;;;;8.63;7.83;;;12.80;46.80;;;;;;5009584;28;20470;-67
2023/04/06 11:49:30;;;;;;;9.30;8.40;;;12.90;46.00;;;;;;5012507;28;21015;-67
2023/04/06 11:51:59;;;;;;;10.70;8.00;;;13.10;49.00;;;;;;5015591;28;20517;-69
2023/04/06 11:54:31;;;;;;;8.60;7.80;;;13.20;50.40;;;;;;5017141;28;20471;-67
2023/04/06 11:57:02;;;;;;;8.87;8.10;;;13.30;44.00;;;;;;5015603;28;20470;-68
2023/04/06 11:59:30;;;;;;;8.40;7.70;;;13.40;44.90;;;;;;5032536;28;20490;-67
2023/04/06 12:01:59;;;;;;;8.87;8.07;;;13.60;42.80;;;;;;5006687;28;20483;-67
2023/04/06 12:04:27;;;;;;;8.63;7.93;;;13.70;42.60;;;;;;5005069;28;21279;-67
2023/04/06 12:06:55;;;;;;;9.20;8.33;;;13.70;40.00;;;;;;5000891;28;20585;-68
2023/04/06 12:09:24;;;;;;;8.53;7.73;;;13.70;39.80;;;;;;5008180;28;20487;-68
2023/04/06 12:11:52;;;;;;;8.27;7.57;;;13.70;40.80;;;;;;5003588;28;20474;-68
2023/04/06 12:14:22;;;;;;;9.03;8.13;;;13.80;40.90;;;;;;5001398;28;20478;-66
2023/04/06 12:16:50;;;;;;;7.30;6.70;;;13.90;39.20;;;;;;5007860;28;20475;-67
2023/04/06 12:19:18;;;;;;;7.97;7.17;;;14.00;40.70;;;;;;5021365;28;20498;-67
2023/04/06 12:21:46;;;;;;;8.27;7.57;;;14.10;40.10;;;;;;5019256;28;20467;-66
2023/04/06 12:24:14;;;;;;;8.30;7.60;;;14.20;40.30;;;;;;5020614;28;21038;-67
2023/04/06 12:26:43;;;;;;;8.07;7.37;;;14.30;42.50;;;;;;5012672;28;20471;-67
2023/04/06 12:29:13;;;;;;;7.80;7.10;;;14.60;42.30;;;;;;5021438;28;20519;-67
2023/04/06 12:31:44;;;;;;;9.00;8.23;;;14.70;39.70;;;;;;5006613;28;20465;-67
2023/04/06 12:34:12;;;;;;;7.83;7.10;;;14.80;36.70;;;;;;5021664;28;20570;-68
2023/04/06 12:36:40;;;;;;;8.50;7.70;;;14.90;37.50;;;;;;5026831;28;20956;-67
2023/04/06 12:39:08;;;;;;;11.07;7.20;;;15.00;38.50;;;;;;5020682;28;20711;-68
2023/04/06 12:41:36;;;;;;;7.93;7.17;;;15.10;40.40;;;;;;5024721;28;20467;-67
2023/04/06 12:44:05;;;;;;;7.93;7.23;;;15.40;42.00;;;;;;5017692;28;20968;-67
2023/04/06 12:46:33;;;;;;;8.43;7.73;;;15.60;39.80;;;;;;5016278;28;20471;-67
2023/04/06 12:49:02;;;;;;;8.67;7.87;;;15.70;35.80;;;;;;5008829;28;20490;-66
2023/04/06 12:51:31;;;;;;;8.10;7.40;;;15.80;36.50;;;;;;5017579;28;20913;-66
2023/04/06 12:53:59;;;;;;;8.20;7.50;;;15.90;34.40;;;;;;5021007;28;20794;-66
2023/04/06 12:56:27;;;;;;;7.27;6.67;;;16.00;36.20;;;;;;5021207;28;20667;-67
2023/04/06 12:58:56;;;;;;;8.57;7.77;;;16.20;36.10;;;;;;5020737;28;20483;-65
2023/04/06 13:01:25;;;;;;;9.10;7.97;;;16.30;35.20;;;;;;5023237;28;20468;-67
2023/04/06 13:03:53;;;;;;;9.53;8.47;;;16.40;33.20;;;;;;5016303;28;20475;-66